sensor_id;sensor_type;location;lat;lon;timestamp;temperature;humidity
68867;SHT30;56451;44.804;20.476;2023-05-16T00:00:27;18.78;68.46
68867;SHT30;56451;44.804;20.476;2023-05-16T00:02:55;18.78;68.53
68867;SHT30;56451;44.804;20.476;2023-05-16T00:05:22;18.76;68.57
68867;SHT30;56451;44.804;20.476;2023-05-16T00:07:48;18.78;68.64
68867;SHT30;56451;44.804;20.476;2023-05-16T00:10:14;18.78;68.56
68867;SHT30;56451;44.804;20.476;2023-05-16T00:12:40;18.77;68.62
68867;SHT30;56451;44.804;20.476;2023-05-16T00:15:07;18.78;68.52
68867;SHT30;56451;44.804;20.476;2023-05-16T00:17:37;18.83;68.53
68867;SHT30;56451;44.804;20.476;2023-05-16T00:20:04;18.86;68.53
68867;SHT30;56451;44.804;20.476;2023-05-16T00:22:32;18.84;68.53
68867;SHT30;56451;44.804;20.476;2023-05-16T00:24:58;18.80;68.57
68867;SHT30;56451;44.804;20.476;2023-05-16T00:27:25;18.80;68.65
68867;SHT30;56451;44.804;20.476;2023-05-16T00:29:52;18.80;68.57
68867;SHT30;56451;44.804;20.476;2023-05-16T00:32:18;18.77;68.68
68867;SHT30;56451;44.804;20.476;2023-05-16T00:34:44;18.78;68.74
68867;SHT30;56451;44.804;20.476;2023-05-16T00:37:10;18.80;68.72
68867;SHT30;56451;44.804;20.476;2023-05-16T00:39:36;18.83;68.70
68867;SHT30;56451;44.804;20.476;2023-05-16T00:42:02;18.78;68.65
68867;SHT30;56451;44.804;20.476;2023-05-16T00:44:30;18.80;68.68
68867;SHT30;56451;44.804;20.476;2023-05-16T00:46:56;18.78;68.69
68867;SHT30;56451;44.804;20.476;2023-05-16T00:49:23;18.77;68.70
68867;SHT30;56451;44.804;20.476;2023-05-16T00:51:49;18.77;68.74
68867;SHT30;56451;44.804;20.476;2023-05-16T00:54:17;18.77;68.74
68867;SHT30;56451;44.804;20.476;2023-05-16T00:56:44;18.80;68.61
68867;SHT30;56451;44.804;20.476;2023-05-16T00:59:11;18.80;68.62
68867;SHT30;56451;44.804;20.476;2023-05-16T01:01:38;18.77;68.65
68867;SHT30;56451;44.804;20.476;2023-05-16T01:04:06;18.78;68.68
68867;SHT30;56451;44.804;20.476;2023-05-16T01:06:34;18.78;68.71
68867;SHT30;56451;44.804;20.476;2023-05-16T01:09:01;18.84;68.72
68867;SHT30;56451;44.804;20.476;2023-05-16T01:11:46;18.83;68.75
68867;SHT30;56451;44.804;20.476;2023-05-16T01:28:15;18.74;69.39
68867;SHT30;56451;44.804;20.476;2023-05-16T01:30:42;18.74;69.50
68867;SHT30;56451;44.804;20.476;2023-05-16T01:33:09;18.74;69.64
68867;SHT30;56451;44.804;20.476;2023-05-16T01:36:19;18.73;69.88
68867;SHT30;56451;44.804;20.476;2023-05-16T01:42:20;18.74;69.96
68867;SHT30;56451;44.804;20.476;2023-05-16T01:45:01;18.73;70.17
68867;SHT30;56451;44.804;20.476;2023-05-16T01:47:30;18.73;70.38
68867;SHT30;56451;44.804;20.476;2023-05-16T01:50:09;18.69;70.49
68867;SHT30;56451;44.804;20.476;2023-05-16T01:55:22;18.70;70.20
68867;SHT30;56451;44.804;20.476;2023-05-16T01:57:50;18.73;70.01
68867;SHT30;56451;44.804;20.476;2023-05-16T02:00:17;18.71;69.92
68867;SHT30;56451;44.804;20.476;2023-05-16T02:02:43;18.71;70.19
68867;SHT30;56451;44.804;20.476;2023-05-16T02:05:09;18.71;70.28
68867;SHT30;56451;44.804;20.476;2023-05-16T02:07:36;18.76;70.15
68867;SHT30;56451;44.804;20.476;2023-05-16T02:10:03;18.73;70.18
68867;SHT30;56451;44.804;20.476;2023-05-16T02:12:29;18.73;70.27
68867;SHT30;56451;44.804;20.476;2023-05-16T02:14:55;18.76;70.44
68867;SHT30;56451;44.804;20.476;2023-05-16T02:17:21;18.76;70.40
68867;SHT30;56451;44.804;20.476;2023-05-16T02:19:47;18.73;70.26
68867;SHT30;56451;44.804;20.476;2023-05-16T02:22:13;18.74;70.34
68867;SHT30;56451;44.804;20.476;2023-05-16T02:24:39;18.80;70.21
68867;SHT30;56451;44.804;20.476;2023-05-16T02:27:05;18.80;70.03
68867;SHT30;56451;44.804;20.476;2023-05-16T02:29:31;18.77;70.04
68867;SHT30;56451;44.804;20.476;2023-05-16T02:34:53;18.77;70.12
68867;SHT30;56451;44.804;20.476;2023-05-16T02:37:18;18.77;70.06
68867;SHT30;56451;44.804;20.476;2023-05-16T02:39:44;18.78;70.03
68867;SHT30;56451;44.804;20.476;2023-05-16T02:42:10;18.77;70.20
68867;SHT30;56451;44.804;20.476;2023-05-16T02:44:37;18.77;70.26
68867;SHT30;56451;44.804;20.476;2023-05-16T02:47:03;18.78;70.15
68867;SHT30;56451;44.804;20.476;2023-05-16T02:49:29;18.81;69.94
68867;SHT30;56451;44.804;20.476;2023-05-16T02:51:55;18.84;70.12
68867;SHT30;56451;44.804;20.476;2023-05-16T02:54:22;18.80;70.18
68867;SHT30;56451;44.804;20.476;2023-05-16T02:56:48;18.80;70.29
68867;SHT30;56451;44.804;20.476;2023-05-16T02:59:14;18.81;70.36
68867;SHT30;56451;44.804;20.476;2023-05-16T03:01:40;18.84;70.22
68867;SHT30;56451;44.804;20.476;2023-05-16T03:04:06;18.81;70.26
68867;SHT30;56451;44.804;20.476;2023-05-16T03:06:32;18.80;70.37
68867;SHT30;56451;44.804;20.476;2023-05-16T03:08:58;18.78;70.29
68867;SHT30;56451;44.804;20.476;2023-05-16T03:11:25;18.74;70.24
68867;SHT30;56451;44.804;20.476;2023-05-16T03:13:53;18.69;70.45
68867;SHT30;56451;44.804;20.476;2023-05-16T03:16:19;18.67;70.77
68867;SHT30;56451;44.804;20.476;2023-05-16T03:18:46;18.64;70.80
68867;SHT30;56451;44.804;20.476;2023-05-16T03:21:12;18.66;71.16
68867;SHT30;56451;44.804;20.476;2023-05-16T03:23:38;18.61;71.58
68867;SHT30;56451;44.804;20.476;2023-05-16T03:26:04;18.53;71.50
68867;SHT30;56451;44.804;20.476;2023-05-16T03:28:30;18.48;71.89
68867;SHT30;56451;44.804;20.476;2023-05-16T03:30:56;18.40;71.92
68867;SHT30;56451;44.804;20.476;2023-05-16T03:33:24;18.39;71.88
68867;SHT30;56451;44.804;20.476;2023-05-16T03:35:49;18.35;71.91
68867;SHT30;56451;44.804;20.476;2023-05-16T03:38:17;18.30;71.95
68867;SHT30;56451;44.804;20.476;2023-05-16T03:40:43;18.26;72.03
68867;SHT30;56451;44.804;20.476;2023-05-16T03:43:09;18.16;72.21
68867;SHT30;56451;44.804;20.476;2023-05-16T03:45:35;18.13;72.41
68867;SHT30;56451;44.804;20.476;2023-05-16T03:48:01;18.09;72.27
68867;SHT30;56451;44.804;20.476;2023-05-16T03:50:27;18.08;72.23
68867;SHT30;56451;44.804;20.476;2023-05-16T03:52:53;18.06;72.29
68867;SHT30;56451;44.804;20.476;2023-05-16T03:55:19;18.05;72.20
68867;SHT30;56451;44.804;20.476;2023-05-16T03:57:45;18.02;72.13
68867;SHT30;56451;44.804;20.476;2023-05-16T04:00:12;18.06;72.03
68867;SHT30;56451;44.804;20.476;2023-05-16T04:02:39;18.06;71.94
68867;SHT30;56451;44.804;20.476;2023-05-16T04:05:09;18.05;71.76
68867;SHT30;56451;44.804;20.476;2023-05-16T04:07:36;18.06;71.93
68867;SHT30;56451;44.804;20.476;2023-05-16T04:10:03;18.04;72.06
68867;SHT30;56451;44.804;20.476;2023-05-16T04:12:29;18.02;71.83
68867;SHT30;56451;44.804;20.476;2023-05-16T04:14:55;18.01;71.71
68867;SHT30;56451;44.804;20.476;2023-05-16T04:17:21;17.94;71.60
68867;SHT30;56451;44.804;20.476;2023-05-16T04:19:47;17.91;71.27
68867;SHT30;56451;44.804;20.476;2023-05-16T04:22:13;17.88;71.23
68867;SHT30;56451;44.804;20.476;2023-05-16T04:24:39;17.87;71.24
68867;SHT30;56451;44.804;20.476;2023-05-16T04:27:06;17.85;71.18
68867;SHT30;56451;44.804;20.476;2023-05-16T04:29:34;17.80;71.17
68867;SHT30;56451;44.804;20.476;2023-05-16T04:32:00;17.84;71.03
68867;SHT30;56451;44.804;20.476;2023-05-16T04:34:26;17.85;70.61
68867;SHT30;56451;44.804;20.476;2023-05-16T04:36:53;17.80;70.76
68867;SHT30;56451;44.804;20.476;2023-05-16T04:39:20;17.80;70.66
68867;SHT30;56451;44.804;20.476;2023-05-16T04:41:46;17.85;70.33
68867;SHT30;56451;44.804;20.476;2023-05-16T04:44:12;17.85;70.20
68867;SHT30;56451;44.804;20.476;2023-05-16T04:46:39;17.85;69.98
68867;SHT30;56451;44.804;20.476;2023-05-16T04:49:05;17.88;69.89
68867;SHT30;56451;44.804;20.476;2023-05-16T04:51:31;17.88;69.93
68867;SHT30;56451;44.804;20.476;2023-05-16T04:53:58;17.87;70.00
68867;SHT30;56451;44.804;20.476;2023-05-16T04:56:24;17.88;70.01
68867;SHT30;56451;44.804;20.476;2023-05-16T04:58:51;17.85;70.02
68867;SHT30;56451;44.804;20.476;2023-05-16T05:01:17;17.85;69.95
68867;SHT30;56451;44.804;20.476;2023-05-16T05:03:43;17.88;69.89
68867;SHT30;56451;44.804;20.476;2023-05-16T05:06:09;17.87;69.84
68867;SHT30;56451;44.804;20.476;2023-05-16T05:08:35;17.95;69.62
68867;SHT30;56451;44.804;20.476;2023-05-16T05:11:01;17.95;69.53
68867;SHT30;56451;44.804;20.476;2023-05-16T05:13:27;18.00;69.55
68867;SHT30;56451;44.804;20.476;2023-05-16T05:15:53;18.00;69.48
68867;SHT30;56451;44.804;20.476;2023-05-16T05:18:19;18.05;69.32
68867;SHT30;56451;44.804;20.476;2023-05-16T05:20:45;18.04;69.33
68867;SHT30;56451;44.804;20.476;2023-05-16T05:23:11;18.05;69.15
68867;SHT30;56451;44.804;20.476;2023-05-16T05:25:38;18.11;69.10
68867;SHT30;56451;44.804;20.476;2023-05-16T05:28:04;18.18;68.95
68867;SHT30;56451;44.804;20.476;2023-05-16T05:30:31;18.24;68.84
68867;SHT30;56451;44.804;20.476;2023-05-16T05:32:57;18.25;68.83
68867;SHT30;56451;44.804;20.476;2023-05-16T05:35:23;18.25;68.87
68867;SHT30;56451;44.804;20.476;2023-05-16T05:37:49;18.28;68.69
68867;SHT30;56451;44.804;20.476;2023-05-16T05:40:15;18.28;68.77
68867;SHT30;56451;44.804;20.476;2023-05-16T05:42:42;18.30;68.84
68867;SHT30;56451;44.804;20.476;2023-05-16T05:45:09;18.33;68.95
68867;SHT30;56451;44.804;20.476;2023-05-16T05:47:35;18.33;68.95
68867;SHT30;56451;44.804;20.476;2023-05-16T05:50:01;18.36;68.84
68867;SHT30;56451;44.804;20.476;2023-05-16T05:52:27;18.36;68.92
68867;SHT30;56451;44.804;20.476;2023-05-16T05:54:53;18.29;68.53
68867;SHT30;56451;44.804;20.476;2023-05-16T05:57:19;18.32;68.11
68867;SHT30;56451;44.804;20.476;2023-05-16T05:59:45;18.38;68.09
68867;SHT30;56451;44.804;20.476;2023-05-16T06:02:13;18.40;67.68
68867;SHT30;56451;44.804;20.476;2023-05-16T06:04:39;18.42;67.17
68867;SHT30;56451;44.804;20.476;2023-05-16T06:07:07;18.45;66.88
68867;SHT30;56451;44.804;20.476;2023-05-16T06:09:33;18.43;66.52
68867;SHT30;56451;44.804;20.476;2023-05-16T06:11:59;18.45;66.50
68867;SHT30;56451;44.804;20.476;2023-05-16T06:14:25;18.42;66.72
68867;SHT30;56451;44.804;20.476;2023-05-16T06:16:51;18.43;66.44
68867;SHT30;56451;44.804;20.476;2023-05-16T06:19:17;18.42;65.97
68867;SHT30;56451;44.804;20.476;2023-05-16T06:21:43;18.42;65.73
68867;SHT30;56451;44.804;20.476;2023-05-16T06:24:09;18.40;65.24
68867;SHT30;56451;44.804;20.476;2023-05-16T06:26:36;18.42;65.20
68867;SHT30;56451;44.804;20.476;2023-05-16T06:29:02;18.42;65.25
68867;SHT30;56451;44.804;20.476;2023-05-16T06:31:28;18.46;64.74
68867;SHT30;56451;44.804;20.476;2023-05-16T06:33:54;18.48;64.50
68867;SHT30;56451;44.804;20.476;2023-05-16T06:36:20;18.49;64.47
68867;SHT30;56451;44.804;20.476;2023-05-16T06:38:46;18.48;64.25
68867;SHT30;56451;44.804;20.476;2023-05-16T06:41:12;18.49;64.61
68867;SHT30;56451;44.804;20.476;2023-05-16T06:43:39;18.46;64.38
68867;SHT30;56451;44.804;20.476;2023-05-16T06:46:05;18.50;64.06
68867;SHT30;56451;44.804;20.476;2023-05-16T06:48:31;18.52;63.62
68867;SHT30;56451;44.804;20.476;2023-05-16T06:50:57;18.52;63.74
68867;SHT30;56451;44.804;20.476;2023-05-16T06:53:23;18.63;63.75
68867;SHT30;56451;44.804;20.476;2023-05-16T06:55:49;18.63;63.69
68867;SHT30;56451;44.804;20.476;2023-05-16T06:58:15;18.66;63.47
68867;SHT30;56451;44.804;20.476;2023-05-16T07:00:41;18.74;63.16
68867;SHT30;56451;44.804;20.476;2023-05-16T07:03:08;18.78;62.56
68867;SHT30;56451;44.804;20.476;2023-05-16T07:05:34;18.78;62.64
68867;SHT30;56451;44.804;20.476;2023-05-16T07:08:01;18.81;62.49
68867;SHT30;56451;44.804;20.476;2023-05-16T07:10:27;18.84;62.14
68867;SHT30;56451;44.804;20.476;2023-05-16T07:12:53;18.87;62.17
68867;SHT30;56451;44.804;20.476;2023-05-16T07:15:20;18.87;61.90
68867;SHT30;56451;44.804;20.476;2023-05-16T07:17:46;18.86;61.49
68867;SHT30;56451;44.804;20.476;2023-05-16T07:20:12;18.87;61.68
68867;SHT30;56451;44.804;20.476;2023-05-16T07:22:39;18.90;61.66
68867;SHT30;56451;44.804;20.476;2023-05-16T07:25:06;18.91;61.46
68867;SHT30;56451;44.804;20.476;2023-05-16T07:27:39;18.94;61.10
68867;SHT30;56451;44.804;20.476;2023-05-16T07:30:10;18.91;61.18
68867;SHT30;56451;44.804;20.476;2023-05-16T07:32:38;18.90;61.09
68867;SHT30;56451;44.804;20.476;2023-05-16T07:35:04;18.90;60.83
68867;SHT30;56451;44.804;20.476;2023-05-16T07:37:30;18.88;60.80
68867;SHT30;56451;44.804;20.476;2023-05-16T07:39:56;18.88;60.62
68867;SHT30;56451;44.804;20.476;2023-05-16T07:42:22;18.88;60.51
68867;SHT30;56451;44.804;20.476;2023-05-16T07:44:48;18.88;60.95
68867;SHT30;56451;44.804;20.476;2023-05-16T07:47:14;18.90;61.03
68867;SHT30;56451;44.804;20.476;2023-05-16T07:49:40;18.91;61.01
68867;SHT30;56451;44.804;20.476;2023-05-16T07:52:06;18.90;61.35
68867;SHT30;56451;44.804;20.476;2023-05-16T07:54:33;18.88;61.20
68867;SHT30;56451;44.804;20.476;2023-05-16T07:57:00;18.87;61.38
68867;SHT30;56451;44.804;20.476;2023-05-16T07:59:27;18.87;61.41
68867;SHT30;56451;44.804;20.476;2023-05-16T08:01:53;18.87;61.23
68867;SHT30;56451;44.804;20.476;2023-05-16T08:04:20;18.83;61.46
68867;SHT30;56451;44.804;20.476;2023-05-16T08:06:46;18.83;61.45
68867;SHT30;56451;44.804;20.476;2023-05-16T08:09:12;18.86;61.54
68867;SHT30;56451;44.804;20.476;2023-05-16T08:11:39;18.87;61.30
68867;SHT30;56451;44.804;20.476;2023-05-16T08:14:05;18.86;61.24
68867;SHT30;56451;44.804;20.476;2023-05-16T08:16:31;18.94;61.32
68867;SHT30;56451;44.804;20.476;2023-05-16T08:18:57;19.01;61.16
68867;SHT30;56451;44.804;20.476;2023-05-16T08:21:23;19.10;60.87
68867;SHT30;56451;44.804;20.476;2023-05-16T08:23:49;19.14;60.56
68867;SHT30;56451;44.804;20.476;2023-05-16T08:26:16;19.10;60.38
68867;SHT30;56451;44.804;20.476;2023-05-16T08:28:42;19.11;60.71
68867;SHT30;56451;44.804;20.476;2023-05-16T08:31:08;19.10;60.84
68867;SHT30;56451;44.804;20.476;2023-05-16T08:33:34;19.12;60.85
68867;SHT30;56451;44.804;20.476;2023-05-16T08:36:00;19.17;60.87
68867;SHT30;56451;44.804;20.476;2023-05-16T08:38:26;19.19;61.01
68867;SHT30;56451;44.804;20.476;2023-05-16T08:40:52;19.22;61.30
68867;SHT30;56451;44.804;20.476;2023-05-16T08:43:18;19.24;62.44
68867;SHT30;56451;44.804;20.476;2023-05-16T08:45:44;19.28;62.63
68867;SHT30;56451;44.804;20.476;2023-05-16T08:48:10;19.31;62.52
68867;SHT30;56451;44.804;20.476;2023-05-16T08:50:37;19.38;62.51
68867;SHT30;56451;44.804;20.476;2023-05-16T08:53:07;19.46;62.33
68867;SHT30;56451;44.804;20.476;2023-05-16T08:55:35;19.46;61.72
68867;SHT30;56451;44.804;20.476;2023-05-16T08:58:02;19.52;61.79
68867;SHT30;56451;44.804;20.476;2023-05-16T09:00:29;19.62;61.47
68867;SHT30;56451;44.804;20.476;2023-05-16T09:02:56;19.67;61.32
68867;SHT30;56451;44.804;20.476;2023-05-16T09:05:22;19.75;61.21
68867;SHT30;56451;44.804;20.476;2023-05-16T09:07:49;19.77;61.12
68867;SHT30;56451;44.804;20.476;2023-05-16T09:10:15;19.77;61.22
68867;SHT30;56451;44.804;20.476;2023-05-16T09:12:41;19.76;61.60
68867;SHT30;56451;44.804;20.476;2023-05-16T09:15:09;19.77;62.26
68867;SHT30;56451;44.804;20.476;2023-05-16T09:17:42;19.82;62.29
68867;SHT30;56451;44.804;20.476;2023-05-16T09:20:13;19.80;62.54
68867;SHT30;56451;44.804;20.476;2023-05-16T09:22:39;19.89;63.01
68867;SHT30;56451;44.804;20.476;2023-05-16T09:25:17;19.94;63.39
68867;SHT30;56451;44.804;20.476;2023-05-16T09:27:47;20.03;63.22
68867;SHT30;56451;44.804;20.476;2023-05-16T09:30:14;20.13;63.22
68867;SHT30;56451;44.804;20.476;2023-05-16T09:32:43;20.18;62.37
68867;SHT30;56451;44.804;20.476;2023-05-16T09:35:14;20.24;62.63
68867;SHT30;56451;44.804;20.476;2023-05-16T09:37:45;20.21;62.72
68867;SHT30;56451;44.804;20.476;2023-05-16T09:40:11;20.24;62.27
68867;SHT30;56451;44.804;20.476;2023-05-16T09:42:37;20.18;61.95
68867;SHT30;56451;44.804;20.476;2023-05-16T09:45:04;20.17;61.69
68867;SHT30;56451;44.804;20.476;2023-05-16T09:47:30;20.10;61.96
68867;SHT30;56451;44.804;20.476;2023-05-16T09:49:56;20.09;62.17
68867;SHT30;56451;44.804;20.476;2023-05-16T09:52:26;20.09;62.15
68867;SHT30;56451;44.804;20.476;2023-05-16T09:54:53;20.13;61.88
68867;SHT30;56451;44.804;20.476;2023-05-16T09:57:20;20.12;62.14
68867;SHT30;56451;44.804;20.476;2023-05-16T09:59:46;20.07;62.53
68867;SHT30;56451;44.804;20.476;2023-05-16T10:02:14;20.07;62.54
68867;SHT30;56451;44.804;20.476;2023-05-16T10:04:41;20.09;62.77
68867;SHT30;56451;44.804;20.476;2023-05-16T10:07:07;20.13;62.73
68867;SHT30;56451;44.804;20.476;2023-05-16T10:09:37;20.10;63.18
68867;SHT30;56451;44.804;20.476;2023-05-16T10:12:07;20.07;63.15
68867;SHT30;56451;44.804;20.476;2023-05-16T10:14:36;20.00;63.31
68867;SHT30;56451;44.804;20.476;2023-05-16T10:17:11;19.97;62.88
68867;SHT30;56451;44.804;20.476;2023-05-16T10:19:39;19.93;63.25
68867;SHT30;56451;44.804;20.476;2023-05-16T10:22:07;19.92;63.26
68867;SHT30;56451;44.804;20.476;2023-05-16T10:24:51;19.90;63.06
68867;SHT30;56451;44.804;20.476;2023-05-16T10:27:19;19.87;63.10
68867;SHT30;56451;44.804;20.476;2023-05-16T10:29:45;19.84;63.08
68867;SHT30;56451;44.804;20.476;2023-05-16T10:32:11;19.80;63.15
68867;SHT30;56451;44.804;20.476;2023-05-16T10:34:38;19.79;63.07
68867;SHT30;56451;44.804;20.476;2023-05-16T10:37:05;19.82;62.70
68867;SHT30;56451;44.804;20.476;2023-05-16T10:39:32;19.82;62.52
68867;SHT30;56451;44.804;20.476;2023-05-16T10:41:58;19.86;62.21
68867;SHT30;56451;44.804;20.476;2023-05-16T10:44:25;19.92;62.17
68867;SHT30;56451;44.804;20.476;2023-05-16T10:46:51;19.98;61.53
68867;SHT30;56451;44.804;20.476;2023-05-16T10:49:22;20.03;61.59
68867;SHT30;56451;44.804;20.476;2023-05-16T10:52:08;20.10;61.55
68867;SHT30;56451;44.804;20.476;2023-05-16T10:54:38;20.16;61.38
68867;SHT30;56451;44.804;20.476;2023-05-16T10:57:25;20.28;61.07
68867;SHT30;56451;44.804;20.476;2023-05-16T10:59:51;20.38;60.77
68867;SHT30;56451;44.804;20.476;2023-05-16T11:04:48;20.51;60.00
68867;SHT30;56451;44.804;20.476;2023-05-16T11:07:18;20.58;59.75
68867;SHT30;56451;44.804;20.476;2023-05-16T11:09:44;20.69;59.49
68867;SHT30;56451;44.804;20.476;2023-05-16T11:12:12;20.79;59.09
68867;SHT30;56451;44.804;20.476;2023-05-16T11:14:40;20.85;58.73
68867;SHT30;56451;44.804;20.476;2023-05-16T11:17:20;20.96;59.08
68867;SHT30;56451;44.804;20.476;2023-05-16T11:20:04;21.03;59.37
68867;SHT30;56451;44.804;20.476;2023-05-16T11:22:32;21.18;59.81
68867;SHT30;56451;44.804;20.476;2023-05-16T11:25:06;21.31;60.00
68867;SHT30;56451;44.804;20.476;2023-05-16T11:27:36;21.46;59.63
68867;SHT30;56451;44.804;20.476;2023-05-16T11:32:40;21.67;58.31
68867;SHT30;56451;44.804;20.476;2023-05-16T11:35:08;21.85;57.60
68867;SHT30;56451;44.804;20.476;2023-05-16T11:37:35;21.99;57.51
68867;SHT30;56451;44.804;20.476;2023-05-16T11:40:07;22.13;56.87
68867;SHT30;56451;44.804;20.476;2023-05-16T11:42:35;22.23;56.60
68867;SHT30;56451;44.804;20.476;2023-05-16T11:45:11;22.28;55.97
68867;SHT30;56451;44.804;20.476;2023-05-16T11:47:41;22.36;55.76
68867;SHT30;56451;44.804;20.476;2023-05-16T11:50:16;22.42;55.37
68867;SHT30;56451;44.804;20.476;2023-05-16T11:52:43;22.49;55.66
68867;SHT30;56451;44.804;20.476;2023-05-16T11:55:10;22.60;55.47
68867;SHT30;56451;44.804;20.476;2023-05-16T11:57:39;22.68;55.19
68867;SHT30;56451;44.804;20.476;2023-05-16T12:00:16;22.71;55.20
68867;SHT30;56451;44.804;20.476;2023-05-16T12:02:43;22.74;55.21
68867;SHT30;56451;44.804;20.476;2023-05-16T12:05:10;22.77;55.24
68867;SHT30;56451;44.804;20.476;2023-05-16T12:07:36;22.78;55.39
68867;SHT30;56451;44.804;20.476;2023-05-16T12:10:11;22.78;55.42
68867;SHT30;56451;44.804;20.476;2023-05-16T12:12:45;22.84;55.44
68867;SHT30;56451;44.804;20.476;2023-05-16T12:15:11;22.84;55.08
68867;SHT30;56451;44.804;20.476;2023-05-16T12:17:39;22.91;54.86
68867;SHT30;56451;44.804;20.476;2023-05-16T12:20:07;22.98;54.64
68867;SHT30;56451;44.804;20.476;2023-05-16T12:22:47;23.01;54.85
68867;SHT30;56451;44.804;20.476;2023-05-16T12:25:28;23.08;54.35
68867;SHT30;56451;44.804;20.476;2023-05-16T12:28:00;23.02;54.11
68867;SHT30;56451;44.804;20.476;2023-05-16T12:30:28;23.07;53.97
68867;SHT30;56451;44.804;20.476;2023-05-16T12:33:00;23.11;54.06
68867;SHT30;56451;44.804;20.476;2023-05-16T12:35:31;23.12;54.19
68867;SHT30;56451;44.804;20.476;2023-05-16T12:37:59;23.18;54.44
68867;SHT30;56451;44.804;20.476;2023-05-16T12:40:28;23.23;54.26
68867;SHT30;56451;44.804;20.476;2023-05-16T12:42:55;23.25;54.13
68867;SHT30;56451;44.804;20.476;2023-05-16T12:45:21;23.32;54.29
68867;SHT30;56451;44.804;20.476;2023-05-16T12:47:49;23.45;54.48
68867;SHT30;56451;44.804;20.476;2023-05-16T12:50:15;23.60;54.66
68867;SHT30;56451;44.804;20.476;2023-05-16T12:52:52;23.74;53.74
68867;SHT30;56451;44.804;20.476;2023-05-16T12:55:20;23.77;53.65
68867;SHT30;56451;44.804;20.476;2023-05-16T12:57:47;23.83;52.35
68867;SHT30;56451;44.804;20.476;2023-05-16T13:00:18;23.83;52.00
68867;SHT30;56451;44.804;20.476;2023-05-16T13:02:46;23.80;51.73
68867;SHT30;56451;44.804;20.476;2023-05-16T13:05:13;23.76;52.73
68867;SHT30;56451;44.804;20.476;2023-05-16T13:07:39;23.73;53.43
68867;SHT30;56451;44.804;20.476;2023-05-16T13:10:09;23.69;53.51
68867;SHT30;56451;44.804;20.476;2023-05-16T13:12:36;23.66;53.73
68867;SHT30;56451;44.804;20.476;2023-05-16T13:15:04;23.72;53.89
68867;SHT30;56451;44.804;20.476;2023-05-16T13:17:35;23.77;53.15
68867;SHT30;56451;44.804;20.476;2023-05-16T13:20:03;23.83;52.76
68867;SHT30;56451;44.804;20.476;2023-05-16T13:22:40;23.87;52.88
68867;SHT30;56451;44.804;20.476;2023-05-16T13:25:06;23.97;53.20
68867;SHT30;56451;44.804;20.476;2023-05-16T13:27:33;24.07;53.12
68867;SHT30;56451;44.804;20.476;2023-05-16T13:30:00;24.16;52.91
68867;SHT30;56451;44.804;20.476;2023-05-16T13:32:26;24.24;52.65
68867;SHT30;56451;44.804;20.476;2023-05-16T13:34:52;24.32;52.60
68867;SHT30;56451;44.804;20.476;2023-05-16T13:37:18;24.35;53.23
68867;SHT30;56451;44.804;20.476;2023-05-16T13:39:44;24.42;53.44
68867;SHT30;56451;44.804;20.476;2023-05-16T13:42:10;24.51;53.32
68867;SHT30;56451;44.804;20.476;2023-05-16T13:44:36;24.55;53.11
68867;SHT30;56451;44.804;20.476;2023-05-16T13:47:02;24.64;53.07
68867;SHT30;56451;44.804;20.476;2023-05-16T13:49:28;24.75;53.73
68867;SHT30;56451;44.804;20.476;2023-05-16T13:51:54;24.87;53.59
68867;SHT30;56451;44.804;20.476;2023-05-16T13:54:23;25.02;53.03
68867;SHT30;56451;44.804;20.476;2023-05-16T13:56:49;25.13;52.92
68867;SHT30;56451;44.804;20.476;2023-05-16T13:59:15;25.28;52.43
68867;SHT30;56451;44.804;20.476;2023-05-16T14:01:41;25.38;52.33
68867;SHT30;56451;44.804;20.476;2023-05-16T14:04:07;25.41;52.14
68867;SHT30;56451;44.804;20.476;2023-05-16T14:06:33;25.51;51.95
68867;SHT30;56451;44.804;20.476;2023-05-16T14:09:00;25.55;51.57
68867;SHT30;56451;44.804;20.476;2023-05-16T14:11:26;25.50;51.31
68867;SHT30;56451;44.804;20.476;2023-05-16T14:13:52;25.44;51.28
68867;SHT30;56451;44.804;20.476;2023-05-16T14:16:19;25.38;51.45
68867;SHT30;56451;44.804;20.476;2023-05-16T14:18:45;25.35;51.55
68867;SHT30;56451;44.804;20.476;2023-05-16T14:21:11;25.45;51.44
68867;SHT30;56451;44.804;20.476;2023-05-16T14:23:37;25.50;51.05
68867;SHT30;56451;44.804;20.476;2023-05-16T14:26:04;25.53;51.28
68867;SHT30;56451;44.804;20.476;2023-05-16T14:28:31;25.61;51.14
68867;SHT30;56451;44.804;20.476;2023-05-16T14:30:58;25.71;49.65
68867;SHT30;56451;44.804;20.476;2023-05-16T14:33:24;25.75;48.69
68867;SHT30;56451;44.804;20.476;2023-05-16T14:35:51;25.84;48.45
68867;SHT30;56451;44.804;20.476;2023-05-16T14:38:18;25.93;48.20
68867;SHT30;56451;44.804;20.476;2023-05-16T14:40:44;25.96;47.81
68867;SHT30;56451;44.804;20.476;2023-05-16T14:43:10;26.02;47.44
68867;SHT30;56451;44.804;20.476;2023-05-16T14:45:37;26.02;47.22
68867;SHT30;56451;44.804;20.476;2023-05-16T14:48:05;25.96;46.94
68867;SHT30;56451;44.804;20.476;2023-05-16T14:50:32;25.91;47.07
68867;SHT30;56451;44.804;20.476;2023-05-16T14:52:57;25.77;47.10
68867;SHT30;56451;44.804;20.476;2023-05-16T14:55:27;25.53;47.23
68867;SHT30;56451;44.804;20.476;2023-05-16T14:57:53;25.45;47.45
68867;SHT30;56451;44.804;20.476;2023-05-16T15:00:23;25.35;47.71
68867;SHT30;56451;44.804;20.476;2023-05-16T15:02:50;25.24;47.97
68867;SHT30;56451;44.804;20.476;2023-05-16T15:05:16;25.06;48.19
68867;SHT30;56451;44.804;20.476;2023-05-16T15:07:43;24.89;48.36
68867;SHT30;56451;44.804;20.476;2023-05-16T15:10:09;24.75;48.91
68867;SHT30;56451;44.804;20.476;2023-05-16T15:12:36;24.69;49.10
68867;SHT30;56451;44.804;20.476;2023-05-16T15:15:06;24.64;49.23
68867;SHT30;56451;44.804;20.476;2023-05-16T15:17:39;24.57;49.23
68867;SHT30;56451;44.804;20.476;2023-05-16T15:20:10;24.61;49.22
68867;SHT30;56451;44.804;20.476;2023-05-16T15:22:39;24.54;49.22
68867;SHT30;56451;44.804;20.476;2023-05-16T15:25:07;24.48;49.35
68867;SHT30;56451;44.804;20.476;2023-05-16T15:27:33;24.42;49.66
68867;SHT30;56451;44.804;20.476;2023-05-16T15:29:59;24.41;49.74
68867;SHT30;56451;44.804;20.476;2023-05-16T15:32:26;24.34;49.73
68867;SHT30;56451;44.804;20.476;2023-05-16T15:34:53;24.25;49.66
68867;SHT30;56451;44.804;20.476;2023-05-16T15:37:19;24.24;49.76
68867;SHT30;56451;44.804;20.476;2023-05-16T15:39:46;24.14;49.89
68867;SHT30;56451;44.804;20.476;2023-05-16T15:42:12;24.03;50.16
68867;SHT30;56451;44.804;20.476;2023-05-16T15:44:39;23.94;50.47